sensor_id;sensor_type;location;lat;lon;timestamp;temperature;humidity
55091;DHT22;40985;53.180;5.800;2023-07-02T00:02:21;14.90;99.90
55091;DHT22;40985;53.180;5.800;2023-07-02T00:04:47;14.80;99.90
55091;DHT22;40985;53.180;5.800;2023-07-02T00:07:13;14.80;99.90
55091;DHT22;40985;53.180;5.800;2023-07-02T00:09:40;14.70;99.90
55091;DHT22;40985;53.180;5.800;2023-07-02T00:12:06;14.70;99.90
55091;DHT22;40985;53.180;5.800;2023-07-02T00:14:32;14.70;99.90
55091;DHT22;40985;53.180;5.800;2023-07-02T00:16:58;14.70;99.90
55091;DHT22;40985;53.180;5.800;2023-07-02T00:19:24;14.70;99.90
55091;DHT22;40985;53.180;5.800;2023-07-02T00:21:49;14.70;99.90
55091;DHT22;40985;53.180;5.800;2023-07-02T00:24:15;14.70;99.90
55091;DHT22;40985;53.180;5.800;2023-07-02T00:26:41;14.70;99.90
55091;DHT22;40985;53.180;5.800;2023-07-02T00:29:08;14.70;99.90
55091;DHT22;40985;53.180;5.800;2023-07-02T00:31:35;14.70;99.90
55091;DHT22;40985;53.180;5.800;2023-07-02T00:34:01;14.60;99.90
55091;DHT22;40985;53.180;5.800;2023-07-02T00:36:28;14.60;99.90
55091;DHT22;40985;53.180;5.800;2023-07-02T00:38:54;14.50;99.90
55091;DHT22;40985;53.180;5.800;2023-07-02T00:41:20;14.40;99.90
55091;DHT22;40985;53.180;5.800;2023-07-02T00:43:45;14.50;99.90
55091;DHT22;40985;53.180;5.800;2023-07-02T00:46:13;14.30;99.90
55091;DHT22;40985;53.180;5.800;2023-07-02T00:48:44;14.40;99.90
55091;DHT22;40985;53.180;5.800;2023-07-02T00:51:26;14.30;99.90
55091;DHT22;40985;53.180;5.800;2023-07-02T00:53:53;14.20;99.90
55091;DHT22;40985;53.180;5.800;2023-07-02T00:56:24;14.20;99.90
55091;DHT22;40985;53.180;5.800;2023-07-02T00:58:51;14.20;99.90
55091;DHT22;40985;53.180;5.800;2023-07-02T01:01:21;14.20;99.90
55091;DHT22;40985;53.180;5.800;2023-07-02T01:06:29;14.20;99.90
55091;DHT22;40985;53.180;5.800;2023-07-02T01:08:57;14.20;99.90
55091;DHT22;40985;53.180;5.800;2023-07-02T01:11:43;14.20;99.90
55091;DHT22;40985;53.180;5.800;2023-07-02T01:14:19;14.30;99.90
55091;DHT22;40985;53.180;5.800;2023-07-02T01:16:47;14.30;99.90
55091;DHT22;40985;53.180;5.800;2023-07-02T01:19:30;14.30;99.90
55091;DHT22;40985;53.180;5.800;2023-07-02T01:21:59;14.40;99.90
55091;DHT22;40985;53.180;5.800;2023-07-02T01:24:26;14.40;99.90
55091;DHT22;40985;53.180;5.800;2023-07-02T01:26:52;14.30;99.90
55091;DHT22;40985;53.180;5.800;2023-07-02T01:29:19;14.40;99.90
55091;DHT22;40985;53.180;5.800;2023-07-02T01:31:46;14.40;99.90
55091;DHT22;40985;53.180;5.800;2023-07-02T01:34:13;14.40;99.90
55091;DHT22;40985;53.180;5.800;2023-07-02T01:36:39;14.40;99.90
55091;DHT22;40985;53.180;5.800;2023-07-02T01:39:06;14.40;99.90
55091;DHT22;40985;53.180;5.800;2023-07-02T01:41:38;14.30;99.90
55091;DHT22;40985;53.180;5.800;2023-07-02T01:44:07;14.30;99.90
55091;DHT22;40985;53.180;5.800;2023-07-02T01:46:32;14.30;99.90
55091;DHT22;40985;53.180;5.800;2023-07-02T01:48:58;14.30;99.90
55091;DHT22;40985;53.180;5.800;2023-07-02T01:51:23;14.30;99.90
55091;DHT22;40985;53.180;5.800;2023-07-02T01:53:49;14.30;99.90
55091;DHT22;40985;53.180;5.800;2023-07-02T01:56:15;14.30;99.90
55091;DHT22;40985;53.180;5.800;2023-07-02T01:58:40;14.30;99.90
55091;DHT22;40985;53.180;5.800;2023-07-02T02:01:06;14.30;99.90
55091;DHT22;40985;53.180;5.800;2023-07-02T02:03:32;14.30;99.90
55091;DHT22;40985;53.180;5.800;2023-07-02T02:05:57;14.20;99.90
55091;DHT22;40985;53.180;5.800;2023-07-02T02:08:23;14.20;99.90
55091;DHT22;40985;53.180;5.800;2023-07-02T02:10:49;14.10;99.90
55091;DHT22;40985;53.180;5.800;2023-07-02T02:13:14;14.10;99.90
55091;DHT22;40985;53.180;5.800;2023-07-02T02:15:40;14.10;99.90
55091;DHT22;40985;53.180;5.800;2023-07-02T02:18:06;14.10;99.90
55091;DHT22;40985;53.180;5.800;2023-07-02T02:20:33;14.10;99.90
55091;DHT22;40985;53.180;5.800;2023-07-02T02:22:58;14.10;99.90
55091;DHT22;40985;53.180;5.800;2023-07-02T02:25:24;14.00;99.90
55091;DHT22;40985;53.180;5.800;2023-07-02T02:27:50;14.00;99.90
55091;DHT22;40985;53.180;5.800;2023-07-02T02:30:16;14.00;99.90
55091;DHT22;40985;53.180;5.800;2023-07-02T02:32:41;14.10;99.90
55091;DHT22;40985;53.180;5.800;2023-07-02T02:35:07;14.10;99.90
55091;DHT22;40985;53.180;5.800;2023-07-02T02:37:35;14.00;99.90
55091;DHT22;40985;53.180;5.800;2023-07-02T02:40:01;14.10;99.90
55091;DHT22;40985;53.180;5.800;2023-07-02T02:42:27;14.10;99.90
55091;DHT22;40985;53.180;5.800;2023-07-02T02:44:53;14.10;99.90
55091;DHT22;40985;53.180;5.800;2023-07-02T02:47:18;14.10;99.90
55091;DHT22;40985;53.180;5.800;2023-07-02T02:49:44;14.20;99.90
55091;DHT22;40985;53.180;5.800;2023-07-02T02:52:10;14.30;99.90
55091;DHT22;40985;53.180;5.800;2023-07-02T02:54:36;14.30;99.90
55091;DHT22;40985;53.180;5.800;2023-07-02T02:57:02;14.30;99.90
55091;DHT22;40985;53.180;5.800;2023-07-02T02:59:27;14.40;99.90
55091;DHT22;40985;53.180;5.800;2023-07-02T03:01:53;14.40;99.90
55091;DHT22;40985;53.180;5.800;2023-07-02T03:04:19;14.40;99.90
55091;DHT22;40985;53.180;5.800;2023-07-02T03:06:50;14.40;99.90
55091;DHT22;40985;53.180;5.800;2023-07-02T03:09:17;14.50;99.90
55091;DHT22;40985;53.180;5.800;2023-07-02T03:11:43;14.50;99.90
55091;DHT22;40985;53.180;5.800;2023-07-02T03:14:09;14.60;99.90
55091;DHT22;40985;53.180;5.800;2023-07-02T03:16:34;14.60;99.90
55091;DHT22;40985;53.180;5.800;2023-07-02T03:19:00;14.70;99.90
55091;DHT22;40985;53.180;5.800;2023-07-02T03:21:26;14.70;99.90
55091;DHT22;40985;53.180;5.800;2023-07-02T03:23:51;14.70;99.90
55091;DHT22;40985;53.180;5.800;2023-07-02T03:26:17;14.70;99.90
55091;DHT22;40985;53.180;5.800;2023-07-02T03:28:45;14.60;99.90
55091;DHT22;40985;53.180;5.800;2023-07-02T03:31:10;14.70;99.90
55091;DHT22;40985;53.180;5.800;2023-07-02T03:33:36;14.70;99.90
55091;DHT22;40985;53.180;5.800;2023-07-02T03:36:02;14.70;99.90
55091;DHT22;40985;53.180;5.800;2023-07-02T03:38:27;14.70;99.90
55091;DHT22;40985;53.180;5.800;2023-07-02T03:40:53;14.70;99.90
55091;DHT22;40985;53.180;5.800;2023-07-02T03:43:19;14.70;99.90
55091;DHT22;40985;53.180;5.800;2023-07-02T03:45:45;14.70;99.90
55091;DHT22;40985;53.180;5.800;2023-07-02T03:48:10;14.80;99.90
55091;DHT22;40985;53.180;5.800;2023-07-02T03:50:36;14.80;99.90
55091;DHT22;40985;53.180;5.800;2023-07-02T03:53:01;14.70;99.90
55091;DHT22;40985;53.180;5.800;2023-07-02T03:55:28;14.70;99.90
55091;DHT22;40985;53.180;5.800;2023-07-02T03:57:53;14.60;99.90
55091;DHT22;40985;53.180;5.800;2023-07-02T04:00:19;14.50;99.90
55091;DHT22;40985;53.180;5.800;2023-07-02T04:02:45;14.50;99.90
55091;DHT22;40985;53.180;5.800;2023-07-02T04:05:10;14.40;99.90
55091;DHT22;40985;53.180;5.800;2023-07-02T04:07:36;14.40;99.90
55091;DHT22;40985;53.180;5.800;2023-07-02T04:10:02;14.30;99.90
55091;DHT22;40985;53.180;5.800;2023-07-02T04:12:27;14.40;99.90
55091;DHT22;40985;53.180;5.800;2023-07-02T04:14:53;14.30;99.90
55091;DHT22;40985;53.180;5.800;2023-07-02T04:17:19;14.30;99.90
55091;DHT22;40985;53.180;5.800;2023-07-02T04:19:45;14.20;99.90
55091;DHT22;40985;53.180;5.800;2023-07-02T04:22:10;14.30;99.90
55091;DHT22;40985;53.180;5.800;2023-07-02T04:24:36;14.30;99.90
55091;DHT22;40985;53.180;5.800;2023-07-02T04:27:02;14.30;99.90
55091;DHT22;40985;53.180;5.800;2023-07-02T04:29:27;14.30;99.90
55091;DHT22;40985;53.180;5.800;2023-07-02T04:31:53;14.40;99.90
55091;DHT22;40985;53.180;5.800;2023-07-02T04:34:19;14.50;99.90
55091;DHT22;40985;53.180;5.800;2023-07-02T04:36:47;14.50;99.90
55091;DHT22;40985;53.180;5.800;2023-07-02T04:39:13;14.60;99.90
55091;DHT22;40985;53.180;5.800;2023-07-02T04:41:38;14.60;99.90
55091;DHT22;40985;53.180;5.800;2023-07-02T04:44:04;14.50;99.90
55091;DHT22;40985;53.180;5.800;2023-07-02T04:46:30;14.60;99.90
55091;DHT22;40985;53.180;5.800;2023-07-02T04:48:56;14.60;99.90
55091;DHT22;40985;53.180;5.800;2023-07-02T04:51:22;14.50;99.90
55091;DHT22;40985;53.180;5.800;2023-07-02T04:53:47;14.50;99.90
55091;DHT22;40985;53.180;5.800;2023-07-02T04:56:13;14.60;99.90
55091;DHT22;40985;53.180;5.800;2023-07-02T04:58:38;14.60;99.90
55091;DHT22;40985;53.180;5.800;2023-07-02T05:01:04;14.70;99.90
55091;DHT22;40985;53.180;5.800;2023-07-02T05:03:30;14.70;99.90
55091;DHT22;40985;53.180;5.800;2023-07-02T05:05:56;14.60;99.90
55091;DHT22;40985;53.180;5.800;2023-07-02T05:08:22;14.50;99.90
55091;DHT22;40985;53.180;5.800;2023-07-02T05:10:47;14.30;99.90
55091;DHT22;40985;53.180;5.800;2023-07-02T05:13:13;14.20;99.90
55091;DHT22;40985;53.180;5.800;2023-07-02T05:15:39;14.20;99.90
55091;DHT22;40985;53.180;5.800;2023-07-02T05:18:05;14.20;99.90
55091;DHT22;40985;53.180;5.800;2023-07-02T05:20:32;14.30;99.90
55091;DHT22;40985;53.180;5.800;2023-07-02T05:22:57;14.30;99.90
55091;DHT22;40985;53.180;5.800;2023-07-02T05:25:23;14.30;99.90
55091;DHT22;40985;53.180;5.800;2023-07-02T05:27:49;14.30;99.90
55091;DHT22;40985;53.180;5.800;2023-07-02T05:30:14;14.30;99.90
55091;DHT22;40985;53.180;5.800;2023-07-02T05:32:40;14.30;99.90
55091;DHT22;40985;53.180;5.800;2023-07-02T05:35:06;14.40;99.90
55091;DHT22;40985;53.180;5.800;2023-07-02T05:37:32;14.40;99.90
55091;DHT22;40985;53.180;5.800;2023-07-02T05:39:58;14.50;99.90
55091;DHT22;40985;53.180;5.800;2023-07-02T05:42:23;14.50;99.90
55091;DHT22;40985;53.180;5.800;2023-07-02T05:44:50;14.60;99.90
55091;DHT22;40985;53.180;5.800;2023-07-02T05:47:15;14.80;99.90
55091;DHT22;40985;53.180;5.800;2023-07-02T05:49:42;14.90;99.90
55091;DHT22;40985;53.180;5.800;2023-07-02T05:52:08;15.10;99.90
55091;DHT22;40985;53.180;5.800;2023-07-02T05:54:34;15.10;99.90
55091;DHT22;40985;53.180;5.800;2023-07-02T05:56:59;15.00;99.90
55091;DHT22;40985;53.180;5.800;2023-07-02T05:59:25;15.00;99.90
55091;DHT22;40985;53.180;5.800;2023-07-02T06:01:50;15.00;99.90
55091;DHT22;40985;53.180;5.800;2023-07-02T06:04:16;15.00;99.90
55091;DHT22;40985;53.180;5.800;2023-07-02T06:06:42;15.00;99.90
55091;DHT22;40985;53.180;5.800;2023-07-02T06:09:08;15.10;99.90
55091;DHT22;40985;53.180;5.800;2023-07-02T06:11:34;15.10;99.90
55091;DHT22;40985;53.180;5.800;2023-07-02T06:14:00;15.10;99.90
55091;DHT22;40985;53.180;5.800;2023-07-02T06:16:26;15.20;99.90
55091;DHT22;40985;53.180;5.800;2023-07-02T06:18:51;15.20;99.90
55091;DHT22;40985;53.180;5.800;2023-07-02T06:21:17;15.20;99.90
55091;DHT22;40985;53.180;5.800;2023-07-02T06:23:43;15.30;99.90
55091;DHT22;40985;53.180;5.800;2023-07-02T06:26:10;15.30;99.90
55091;DHT22;40985;53.180;5.800;2023-07-02T06:28:36;15.30;99.90
55091;DHT22;40985;53.180;5.800;2023-07-02T06:31:02;15.20;99.90
55091;DHT22;40985;53.180;5.800;2023-07-02T06:33:27;15.10;99.90
55091;DHT22;40985;53.180;5.800;2023-07-02T06:35:53;15.10;99.90
55091;DHT22;40985;53.180;5.800;2023-07-02T06:38:19;15.20;99.90
55091;DHT22;40985;53.180;5.800;2023-07-02T06:40:44;15.20;99.90
55091;DHT22;40985;53.180;5.800;2023-07-02T06:43:10;15.30;99.90
55091;DHT22;40985;53.180;5.800;2023-07-02T06:45:36;15.40;99.90
55091;DHT22;40985;53.180;5.800;2023-07-02T06:48:01;15.50;99.90
55091;DHT22;40985;53.180;5.800;2023-07-02T06:50:27;15.50;99.90
55091;DHT22;40985;53.180;5.800;2023-07-02T06:52:53;15.50;99.90
55091;DHT22;40985;53.180;5.800;2023-07-02T06:55:19;15.50;99.90
55091;DHT22;40985;53.180;5.800;2023-07-02T06:57:45;15.50;99.90
55091;DHT22;40985;53.180;5.800;2023-07-02T07:00:14;15.60;99.90
55091;DHT22;40985;53.180;5.800;2023-07-02T07:02:40;15.80;99.90
55091;DHT22;40985;53.180;5.800;2023-07-02T07:05:06;15.80;99.90
55091;DHT22;40985;53.180;5.800;2023-07-02T07:07:32;15.70;99.90
55091;DHT22;40985;53.180;5.800;2023-07-02T07:09:58;15.50;99.90
55091;DHT22;40985;53.180;5.800;2023-07-02T07:12:24;15.60;99.90
55091;DHT22;40985;53.180;5.800;2023-07-02T07:14:49;15.60;99.90
55091;DHT22;40985;53.180;5.800;2023-07-02T07:17:15;15.70;99.90
55091;DHT22;40985;53.180;5.800;2023-07-02T07:19:40;15.90;99.90
55091;DHT22;40985;53.180;5.800;2023-07-02T07:22:06;16.00;99.90
55091;DHT22;40985;53.180;5.800;2023-07-02T07:24:32;15.90;99.90
55091;DHT22;40985;53.180;5.800;2023-07-02T07:26:57;15.80;99.90
55091;DHT22;40985;53.180;5.800;2023-07-02T07:29:23;15.90;99.90
55091;DHT22;40985;53.180;5.800;2023-07-02T07:31:50;15.90;99.90
55091;DHT22;40985;53.180;5.800;2023-07-02T07:34:15;15.80;99.90
55091;DHT22;40985;53.180;5.800;2023-07-02T07:36:41;15.80;99.90
55091;DHT22;40985;53.180;5.800;2023-07-02T07:39:07;15.80;99.90
55091;DHT22;40985;53.180;5.800;2023-07-02T07:41:32;15.80;99.90
55091;DHT22;40985;53.180;5.800;2023-07-02T07:43:58;15.90;99.90
55091;DHT22;40985;53.180;5.800;2023-07-02T07:46:24;15.90;99.90
55091;DHT22;40985;53.180;5.800;2023-07-02T07:48:49;15.80;99.90
55091;DHT22;40985;53.180;5.800;2023-07-02T07:51:15;15.60;99.90
55091;DHT22;40985;53.180;5.800;2023-07-02T07:53:41;15.70;99.90
55091;DHT22;40985;53.180;5.800;2023-07-02T07:56:06;15.60;99.90
55091;DHT22;40985;53.180;5.800;2023-07-02T07:58:32;15.50;99.90
55091;DHT22;40985;53.180;5.800;2023-07-02T08:00:58;15.50;99.90
55091;DHT22;40985;53.180;5.800;2023-07-02T08:03:23;15.40;99.90
55091;DHT22;40985;53.180;5.800;2023-07-02T08:05:49;15.70;99.90
55091;DHT22;40985;53.180;5.800;2023-07-02T08:08:15;16.00;99.90
55091;DHT22;40985;53.180;5.800;2023-07-02T08:10:40;16.00;99.90
55091;DHT22;40985;53.180;5.800;2023-07-02T08:13:08;15.90;99.90
55091;DHT22;40985;53.180;5.800;2023-07-02T08:15:33;16.00;99.90
55091;DHT22;40985;53.180;5.800;2023-07-02T08:17:59;16.10;99.90
55091;DHT22;40985;53.180;5.800;2023-07-02T08:20:25;16.20;99.90
55091;DHT22;40985;53.180;5.800;2023-07-02T08:22:51;16.10;99.90
55091;DHT22;40985;53.180;5.800;2023-07-02T08:25:17;16.10;99.90
55091;DHT22;40985;53.180;5.800;2023-07-02T08:27:43;16.10;99.90
55091;DHT22;40985;53.180;5.800;2023-07-02T08:30:10;15.90;99.90
55091;DHT22;40985;53.180;5.800;2023-07-02T08:32:36;16.20;99.90
55091;DHT22;40985;53.180;5.800;2023-07-02T08:35:01;16.30;99.90
55091;DHT22;40985;53.180;5.800;2023-07-02T08:37:27;16.50;99.90
55091;DHT22;40985;53.180;5.800;2023-07-02T08:39:53;16.70;99.90
55091;DHT22;40985;53.180;5.800;2023-07-02T08:42:19;16.70;99.90
55091;DHT22;40985;53.180;5.800;2023-07-02T08:44:53;16.80;99.90
55091;DHT22;40985;53.180;5.800;2023-07-02T08:47:18;16.70;99.90
55091;DHT22;40985;53.180;5.800;2023-07-02T08:49:44;16.80;99.90
55091;DHT22;40985;53.180;5.800;2023-07-02T08:52:10;16.90;99.90
55091;DHT22;40985;53.180;5.800;2023-07-02T08:54:36;17.00;99.90
55091;DHT22;40985;53.180;5.800;2023-07-02T08:57:01;16.90;99.90
55091;DHT22;40985;53.180;5.800;2023-07-02T08:59:31;17.00;99.90
55091;DHT22;40985;53.180;5.800;2023-07-02T09:01:56;17.30;99.90
55091;DHT22;40985;53.180;5.800;2023-07-02T09:04:25;17.20;99.90
55091;DHT22;40985;53.180;5.800;2023-07-02T09:07:07;17.20;99.90
55091;DHT22;40985;53.180;5.800;2023-07-02T09:12:28;17.40;99.90
55091;DHT22;40985;53.180;5.800;2023-07-02T09:15:04;17.40;99.90
55091;DHT22;40985;53.180;5.800;2023-07-02T09:17:40;17.60;99.90
55091;DHT22;40985;53.180;5.800;2023-07-02T09:20:06;17.40;99.90
55091;DHT22;40985;53.180;5.800;2023-07-02T09:22:34;17.50;99.90
55091;DHT22;40985;53.180;5.800;2023-07-02T09:25:01;17.80;99.90
55091;DHT22;40985;53.180;5.800;2023-07-02T09:27:38;17.50;99.90
55091;DHT22;40985;53.180;5.800;2023-07-02T09:30:08;17.30;99.90
55091;DHT22;40985;53.180;5.800;2023-07-02T09:32:34;17.60;99.90
55091;DHT22;40985;53.180;5.800;2023-07-02T09:35:00;17.90;99.90
55091;DHT22;40985;53.180;5.800;2023-07-02T09:37:26;17.90;99.90
55091;DHT22;40985;53.180;5.800;2023-07-02T09:39:53;17.80;99.90
55091;DHT22;40985;53.180;5.800;2023-07-02T09:42:21;17.60;99.90
55091;DHT22;40985;53.180;5.800;2023-07-02T09:44:48;17.50;99.90
55091;DHT22;40985;53.180;5.800;2023-07-02T09:47:18;17.20;99.90
55091;DHT22;40985;53.180;5.800;2023-07-02T09:49:57;17.10;99.90
55091;DHT22;40985;53.180;5.800;2023-07-02T09:52:23;17.20;99.90
55091;DHT22;40985;53.180;5.800;2023-07-02T09:54:49;17.30;99.90
55091;DHT22;40985;53.180;5.800;2023-07-02T09:57:15;17.40;99.90
55091;DHT22;40985;53.180;5.800;2023-07-02T09:59:41;17.30;99.90
55091;DHT22;40985;53.180;5.800;2023-07-02T10:02:10;17.60;99.90
55091;DHT22;40985;53.180;5.800;2023-07-02T10:04:47;17.40;99.90
55091;DHT22;40985;53.180;5.800;2023-07-02T10:07:26;17.10;99.90
55091;DHT22;40985;53.180;5.800;2023-07-02T10:09:51;17.10;99.90
55091;DHT22;40985;53.180;5.800;2023-07-02T10:12:46;16.90;99.90
55091;DHT22;40985;53.180;5.800;2023-07-02T10:15:12;16.90;99.90
55091;DHT22;40985;53.180;5.800;2023-07-02T10:17:37;17.00;99.90
55091;DHT22;40985;53.180;5.800;2023-07-02T10:20:05;17.00;99.90
55091;DHT22;40985;53.180;5.800;2023-07-02T10:25:08;16.50;99.90
55091;DHT22;40985;53.180;5.800;2023-07-02T10:30:01;17.10;99.90
55091;DHT22;40985;53.180;5.800;2023-07-02T10:32:28;17.00;99.90
55091;DHT22;40985;53.180;5.800;2023-07-02T10:34:54;17.30;99.90
55091;DHT22;40985;53.180;5.800;2023-07-02T10:37:20;17.70;99.90
55091;DHT22;40985;53.180;5.800;2023-07-02T10:39:46;17.60;99.90
55091;DHT22;40985;53.180;5.800;2023-07-02T10:42:12;17.90;99.90
55091;DHT22;40985;53.180;5.800;2023-07-02T10:44:49;18.40;99.90
55091;DHT22;40985;53.180;5.800;2023-07-02T10:47:15;18.10;99.90
55091;DHT22;40985;53.180;5.800;2023-07-02T10:49:41;18.10;99.90
55091;DHT22;40985;53.180;5.800;2023-07-02T10:52:07;17.60;99.90
55091;DHT22;40985;53.180;5.800;2023-07-02T10:54:43;17.30;99.90
55091;DHT22;40985;53.180;5.800;2023-07-02T10:57:10;17.70;99.90
55091;DHT22;40985;53.180;5.800;2023-07-02T10:59:37;17.50;99.90
55091;DHT22;40985;53.180;5.800;2023-07-02T11:02:03;17.70;99.90
55091;DHT22;40985;53.180;5.800;2023-07-02T11:04:30;17.50;99.90
55091;DHT22;40985;53.180;5.800;2023-07-02T11:06:57;17.90;99.90
55091;DHT22;40985;53.180;5.800;2023-07-02T11:09:23;18.00;99.90
55091;DHT22;40985;53.180;5.800;2023-07-02T11:11:56;18.20;99.90
55091;DHT22;40985;53.180;5.800;2023-07-02T11:14:31;18.10;99.90
55091;DHT22;40985;53.180;5.800;2023-07-02T11:17:06;17.70;99.90
55091;DHT22;40985;53.180;5.800;2023-07-02T11:19:36;17.80;99.90
55091;DHT22;40985;53.180;5.800;2023-07-02T11:22:02;17.80;99.90
55091;DHT22;40985;53.180;5.800;2023-07-02T11:24:30;17.60;99.90
55091;DHT22;40985;53.180;5.800;2023-07-02T11:26:56;18.00;99.90
55091;DHT22;40985;53.180;5.800;2023-07-02T11:29:22;18.60;99.90
55091;DHT22;40985;53.180;5.800;2023-07-02T11:31:47;18.40;99.90
55091;DHT22;40985;53.180;5.800;2023-07-02T11:34:19;18.70;99.90
55091;DHT22;40985;53.180;5.800;2023-07-02T11:36:45;18.70;99.90
55091;DHT22;40985;53.180;5.800;2023-07-02T11:39:11;18.70;99.90
55091;DHT22;40985;53.180;5.800;2023-07-02T11:41:44;18.20;99.90
55091;DHT22;40985;53.180;5.800;2023-07-02T11:44:10;18.30;99.90
55091;DHT22;40985;53.180;5.800;2023-07-02T11:46:36;18.40;99.90
55091;DHT22;40985;53.180;5.800;2023-07-02T11:49:02;18.40;99.90
55091;DHT22;40985;53.180;5.800;2023-07-02T11:51:30;18.30;99.90
55091;DHT22;40985;53.180;5.800;2023-07-02T11:53:57;18.80;99.90
55091;DHT22;40985;53.180;5.800;2023-07-02T11:56:23;18.40;99.90
55091;DHT22;40985;53.180;5.800;2023-07-02T11:58:49;18.30;99.90
55091;DHT22;40985;53.180;5.800;2023-07-02T12:01:14;18.00;99.90
55091;DHT22;40985;53.180;5.800;2023-07-02T12:03:40;18.00;99.90
55091;DHT22;40985;53.180;5.800;2023-07-02T12:06:06;18.20;99.90
55091;DHT22;40985;53.180;5.800;2023-07-02T12:08:31;18.30;99.90
55091;DHT22;40985;53.180;5.800;2023-07-02T12:10:57;18.10;99.90
55091;DHT22;40985;53.180;5.800;2023-07-02T12:13:23;18.10;99.90
55091;DHT22;40985;53.180;5.800;2023-07-02T12:15:48;18.10;99.90
55091;DHT22;40985;53.180;5.800;2023-07-02T12:18:16;18.20;99.90
55091;DHT22;40985;53.180;5.800;2023-07-02T12:20:42;18.00;99.90
55091;DHT22;40985;53.180;5.800;2023-07-02T12:23:08;18.20;99.90
55091;DHT22;40985;53.180;5.800;2023-07-02T12:25:34;18.20;99.90
55091;DHT22;40985;53.180;5.800;2023-07-02T12:28:02;18.30;99.90
55091;DHT22;40985;53.180;5.800;2023-07-02T12:30:28;18.50;99.90
55091;DHT22;40985;53.180;5.800;2023-07-02T12:32:54;18.40;99.90
55091;DHT22;40985;53.180;5.800;2023-07-02T12:35:19;18.80;99.90
55091;DHT22;40985;53.180;5.800;2023-07-02T12:37:46;18.80;99.90
55091;DHT22;40985;53.180;5.800;2023-07-02T12:40:13;18.90;99.90
55091;DHT22;40985;53.180;5.800;2023-07-02T12:42:41;19.00;99.90
55091;DHT22;40985;53.180;5.800;2023-07-02T12:45:08;18.60;99.90
55091;DHT22;40985;53.180;5.800;2023-07-02T12:47:34;18.40;99.90
55091;DHT22;40985;53.180;5.800;2023-07-02T12:50:00;18.40;99.90
55091;DHT22;40985;53.180;5.800;2023-07-02T12:52:26;18.30;99.90
55091;DHT22;40985;53.180;5.800;2023-07-02T12:54:51;18.30;99.90
55091;DHT22;40985;53.180;5.800;2023-07-02T12:57:18;18.10;99.90
55091;DHT22;40985;53.180;5.800;2023-07-02T12:59:43;18.30;99.90
55091;DHT22;40985;53.180;5.800;2023-07-02T13:02:10;18.10;99.90
55091;DHT22;40985;53.180;5.800;2023-07-02T13:04:36;18.10;99.90
55091;DHT22;40985;53.180;5.800;2023-07-02T13:07:01;17.80;99.90
55091;DHT22;40985;53.180;5.800;2023-07-02T13:09:27;17.70;99.90
55091;DHT22;40985;53.180;5.800;2023-07-02T13:11:53;17.60;99.90
55091;DHT22;40985;53.180;5.800;2023-07-02T13:14:18;17.50;99.90
55091;DHT22;40985;53.180;5.800;2023-07-02T13:16:44;17.60;99.90
55091;DHT22;40985;53.180;5.800;2023-07-02T13:19:10;17.60;99.90
55091;DHT22;40985;53.180;5.800;2023-07-02T13:21:36;17.80;99.90
55091;DHT22;40985;53.180;5.800;2023-07-02T13:24:02;18.50;99.90
55091;DHT22;40985;53.180;5.800;2023-07-02T13:26:28;18.50;99.90
55091;DHT22;40985;53.180;5.800;2023-07-02T13:28:54;18.00;99.90
55091;DHT22;40985;53.180;5.800;2023-07-02T13:31:19;17.70;99.90
55091;DHT22;40985;53.180;5.800;2023-07-02T13:33:45;17.60;99.90
55091;DHT22;40985;53.180;5.800;2023-07-02T13:36:15;17.60;99.90
55091;DHT22;40985;53.180;5.800;2023-07-02T13:38:40;17.80;99.90
55091;DHT22;40985;53.180;5.800;2023-07-02T13:41:06;17.70;99.90
55091;DHT22;40985;53.180;5.800;2023-07-02T13:43:32;17.50;99.90
55091;DHT22;40985;53.180;5.800;2023-07-02T13:45:58;17.50;99.90
55091;DHT22;40985;53.180;5.800;2023-07-02T13:48:23;17.20;99.90
55091;DHT22;40985;53.180;5.800;2023-07-02T13:50:49;17.20;99.90
55091;DHT22;40985;53.180;5.800;2023-07-02T13:53:14;17.10;99.90
55091;DHT22;40985;53.180;5.800;2023-07-02T13:55:40;17.10;99.90
55091;DHT22;40985;53.180;5.800;2023-07-02T13:58:06;17.10;99.90
55091;DHT22;40985;53.180;5.800;2023-07-02T14:00:31;17.50;99.90
55091;DHT22;40985;53.180;5.800;2023-07-02T14:02:58;17.70;99.90
55091;DHT22;40985;53.180;5.800;2023-07-02T14:05:24;17.90;99.90
55091;DHT22;40985;53.180;5.800;2023-07-02T14:07:49;17.80;99.90
55091;DHT22;40985;53.180;5.800;2023-07-02T14:10:15;17.70;99.90
55091;DHT22;40985;53.180;5.800;2023-07-02T14:12:42;17.70;99.90
55091;DHT22;40985;53.180;5.800;2023-07-02T14:15:08;18.10;99.90
55091;DHT22;40985;53.180;5.800;2023-07-02T14:17:34;17.90;99.90
55091;DHT22;40985;53.180;5.800;2023-07-02T14:20:00;18.10;99.90
55091;DHT22;40985;53.180;5.800;2023-07-02T14:22:26;18.40;99.90
55091;DHT22;40985;53.180;5.800;2023-07-02T14:24:52;18.80;99.90
55091;DHT22;40985;53.180;5.800;2023-07-02T14:27:17;19.00;99.90
55091;DHT22;40985;53.180;5.800;2023-07-02T14:29:43;18.70;99.90
55091;DHT22;40985;53.180;5.800;2023-07-02T14:32:09;18.50;99.90
55091;DHT22;40985;53.180;5.800;2023-07-02T14:34:35;18.30;99.90
55091;DHT22;40985;53.180;5.800;2023-07-02T14:37:02;18.10;99.90
55091;DHT22;40985;53.180;5.800;2023-07-02T14:39:28;18.20;99.90
55091;DHT22;40985;53.180;5.800;2023-07-02T14:41:53;17.80;99.90
55091;DHT22;40985;53.180;5.800;2023-07-02T14:44:19;17.90;99.90
55091;DHT22;40985;53.180;5.800;2023-07-02T14:46:45;17.90;99.90
55091;DHT22;40985;53.180;5.800;2023-07-02T14:49:10;18.00;99.90
55091;DHT22;40985;53.180;5.800;2023-07-02T14:51:36;18.10;99.90
55091;DHT22;40985;53.180;5.800;2023-07-02T14:54:02;18.10;99.90
55091;DHT22;40985;53.180;5.800;2023-07-02T14:56:30;17.90;99.90
55091;DHT22;40985;53.180;5.800;2023-07-02T14:58:55;17.80;99.90
55091;DHT22;40985;53.180;5.800;2023-07-02T15:01:21;17.50;99.90
55091;DHT22;40985;53.180;5.800;2023-07-02T15:03:47;17.30;99.90
55091;DHT22;40985;53.180;5.800;2023-07-02T15:06:15;17.10;99.90
55091;DHT22;40985;53.180;5.800;2023-07-02T15:08:42;17.10;99.90
55091;DHT22;40985;53.180;5.800;2023-07-02T15:11:09;17.00;99.90
55091;DHT22;40985;53.180;5.800;2023-07-02T15:13:35;16.90;99.90
55091;DHT22;40985;53.180;5.800;2023-07-02T15:16:01;16.90;99.90
55091;DHT22;40985;53.180;5.800;2023-07-02T15:18:27;16.90;99.90
55091;DHT22;40985;53.180;5.800;2023-07-02T15:20:53;16.90;99.90
55091;DHT22;40985;53.180;5.800;2023-07-02T15:23:20;16.90;99.90
55091;DHT22;40985;53.180;5.800;2023-07-02T15:26:00;16.80;99.90
55091;DHT22;40985;53.180;5.800;2023-07-02T15:28:28;16.80;99.90
55091;DHT22;40985;53.180;5.800;2023-07-02T15:30:55;16.70;99.90
55091;DHT22;40985;53.180;5.800;2023-07-02T15:33:22;16.60;99.90
55091;DHT22;40985;53.180;5.800;2023-07-02T15:35:48;16.60;99.90
55091;DHT22;40985;53.180;5.800;2023-07-02T15:38:13;16.60;99.90